sensor_id;sensor_type;location;lat;lon;timestamp;pressure;altitude;pressure_sealevel;temperature;humidity
85936;BME280;76481;54.346;10.210;2024-03-17T00:00:30;101945.47;;;3.85;76.10
85936;BME280;76481;54.346;10.210;2024-03-17T00:02:55;101963.75;;;3.83;76.15
85936;BME280;76481;54.346;10.210;2024-03-17T00:05:21;101964.97;;;3.82;76.11
85936;BME280;76481;54.346;10.210;2024-03-17T00:07:47;101967.38;;;3.83;75.90
85936;BME280;76481;54.346;10.210;2024-03-17T00:10:12;101978.91;;;3.82;76.66
85936;BME280;76481;54.346;10.210;2024-03-17T00:12:38;101970.94;;;3.84;75.96
85936;BME280;76481;54.346;10.210;2024-03-17T00:15:07;101968.97;;;3.84;75.79
85936;BME280;76481;54.346;10.210;2024-03-17T00:17:33;101973.25;;;3.78;76.24
85936;BME280;76481;54.346;10.210;2024-03-17T00:20:01;101975.69;;;3.80;76.49
85936;BME280;76481;54.346;10.210;2024-03-17T00:22:35;101975.59;;;3.73;76.58
85936;BME280;76481;54.346;10.210;2024-03-17T00:25:05;101981.91;;;3.70;76.51
85936;BME280;76481;54.346;10.210;2024-03-17T00:27:31;101986.25;;;3.67;77.08
85936;BME280;76481;54.346;10.210;2024-03-17T00:29:56;101979.41;;;3.61;76.82
85936;BME280;76481;54.346;10.210;2024-03-17T00:32:22;101984.88;;;3.54;76.57
85936;BME280;76481;54.346;10.210;2024-03-17T00:34:49;101983.31;;;3.57;76.60
85936;BME280;76481;54.346;10.210;2024-03-17T00:37:14;101995.25;;;3.57;76.26
85936;BME280;76481;54.346;10.210;2024-03-17T00:39:40;101991.13;;;3.48;76.81
85936;BME280;76481;54.346;10.210;2024-03-17T00:42:05;101996.34;;;3.49;76.70
85936;BME280;76481;54.346;10.210;2024-03-17T00:44:32;101999.13;;;3.49;76.42
85936;BME280;76481;54.346;10.210;2024-03-17T00:46:59;101992.63;;;3.42;76.97
85936;BME280;76481;54.346;10.210;2024-03-17T00:49:25;102006.94;;;3.40;77.19
85936;BME280;76481;54.346;10.210;2024-03-17T00:51:50;101995.84;;;3.44;77.20
85936;BME280;76481;54.346;10.210;2024-03-17T00:54:16;101994.59;;;3.41;76.81
85936;BME280;76481;54.346;10.210;2024-03-17T00:56:43;102006.88;;;3.37;77.61
85936;BME280;76481;54.346;10.210;2024-03-17T00:59:08;101997.75;;;3.40;77.68
85936;BME280;76481;54.346;10.210;2024-03-17T01:01:34;102002.94;;;3.38;78.08
85936;BME280;76481;54.346;10.210;2024-03-17T01:03:59;102002.59;;;3.43;77.66
85936;BME280;76481;54.346;10.210;2024-03-17T01:06:25;101995.84;;;3.44;77.79
85936;BME280;76481;54.346;10.210;2024-03-17T01:08:50;102010.94;;;3.43;78.08
85936;BME280;76481;54.346;10.210;2024-03-17T01:11:17;102007.88;;;3.48;77.60
85936;BME280;76481;54.346;10.210;2024-03-17T01:13:45;102008.72;;;3.52;77.31
85936;BME280;76481;54.346;10.210;2024-03-17T01:16:12;102013.38;;;3.44;78.35
85936;BME280;76481;54.346;10.210;2024-03-17T01:18:37;102014.13;;;3.41;78.02
85936;BME280;76481;54.346;10.210;2024-03-17T01:21:05;102015.69;;;3.39;77.61
85936;BME280;76481;54.346;10.210;2024-03-17T01:23:31;102015.69;;;3.39;78.06
85936;BME280;76481;54.346;10.210;2024-03-17T01:25:56;102018.84;;;3.37;78.07
85936;BME280;76481;54.346;10.210;2024-03-17T01:28:22;102021.31;;;3.42;78.20
85936;BME280;76481;54.346;10.210;2024-03-17T01:30:47;102023.75;;;3.44;77.84
85936;BME280;76481;54.346;10.210;2024-03-17T01:33:13;102024.41;;;3.37;77.88
85936;BME280;76481;54.346;10.210;2024-03-17T01:35:39;102017.72;;;3.42;77.45
85936;BME280;76481;54.346;10.210;2024-03-17T01:38:04;102011.84;;;3.47;76.96
85936;BME280;76481;54.346;10.210;2024-03-17T01:40:29;102019.75;;;3.45;77.89
85936;BME280;76481;54.346;10.210;2024-03-17T01:42:55;102022.00;;;3.36;77.88
85936;BME280;76481;54.346;10.210;2024-03-17T01:45:27;102018.78;;;3.34;78.60
85936;BME280;76481;54.346;10.210;2024-03-17T01:47:53;102014.56;;;3.21;78.37
85936;BME280;76481;54.346;10.210;2024-03-17T01:50:20;102028.81;;;3.16;79.21
85936;BME280;76481;54.346;10.210;2024-03-17T01:52:55;102025.19;;;3.12;79.33
85936;BME280;76481;54.346;10.210;2024-03-17T01:55:22;102015.56;;;3.09;79.62
85936;BME280;76481;54.346;10.210;2024-03-17T01:57:50;102018.31;;;3.06;79.96
85936;BME280;76481;54.346;10.210;2024-03-17T02:00:15;102022.94;;;2.98;80.18
85936;BME280;76481;54.346;10.210;2024-03-17T02:02:41;102017.28;;;2.95;80.44
85936;BME280;76481;54.346;10.210;2024-03-17T02:05:06;102025.09;;;2.86;81.14
85936;BME280;76481;54.346;10.210;2024-03-17T02:07:32;102021.88;;;2.84;80.70
85936;BME280;76481;54.346;10.210;2024-03-17T02:09:57;102023.47;;;2.85;80.92
85936;BME280;76481;54.346;10.210;2024-03-17T02:12:23;102017.03;;;2.81;81.20
85936;BME280;76481;54.346;10.210;2024-03-17T02:14:49;102021.31;;;2.75;81.60
85936;BME280;76481;54.346;10.210;2024-03-17T02:17:15;102021.19;;;2.68;81.84
85936;BME280;76481;54.346;10.210;2024-03-17T02:19:41;102022.34;;;2.67;81.90
85936;BME280;76481;54.346;10.210;2024-03-17T02:22:15;102016.41;;;2.68;81.36
85936;BME280;76481;54.346;10.210;2024-03-17T02:24:42;102030.31;;;2.68;81.44
85936;BME280;76481;54.346;10.210;2024-03-17T02:27:08;102027.75;;;2.60;81.75
85936;BME280;76481;54.346;10.210;2024-03-17T02:29:34;102036.69;;;2.69;81.62
85936;BME280;76481;54.346;10.210;2024-03-17T02:32:02;102030.03;;;2.73;81.56
85936;BME280;76481;54.346;10.210;2024-03-17T02:34:35;102038.16;;;2.63;81.60
85936;BME280;76481;54.346;10.210;2024-03-17T02:37:02;102039.63;;;2.57;82.56
85936;BME280;76481;54.346;10.210;2024-03-17T02:39:29;102048.44;;;2.59;82.06
85936;BME280;76481;54.346;10.210;2024-03-17T02:42:09;102039.25;;;2.58;82.20
85936;BME280;76481;54.346;10.210;2024-03-17T02:44:37;102041.22;;;2.58;82.23
85936;BME280;76481;54.346;10.210;2024-03-17T02:47:04;102048.22;;;2.67;81.71
85936;BME280;76481;54.346;10.210;2024-03-17T02:49:31;102043.66;;;2.59;82.28
85936;BME280;76481;54.346;10.210;2024-03-17T02:52:06;102048.28;;;2.52;81.73
85936;BME280;76481;54.346;10.210;2024-03-17T02:54:32;102052.97;;;2.48;82.98
85936;BME280;76481;54.346;10.210;2024-03-17T02:56:58;102052.00;;;2.40;83.25
85936;BME280;76481;54.346;10.210;2024-03-17T02:59:24;102056.69;;;2.36;83.48
85936;BME280;76481;54.346;10.210;2024-03-17T03:01:49;102069.38;;;2.34;84.06
85936;BME280;76481;54.346;10.210;2024-03-17T03:04:15;102064.53;;;2.31;84.61
85936;BME280;76481;54.346;10.210;2024-03-17T03:06:41;102068.06;;;2.28;84.45
85936;BME280;76481;54.346;10.210;2024-03-17T03:09:06;102063.63;;;2.27;84.67
85936;BME280;76481;54.346;10.210;2024-03-17T03:11:38;102068.41;;;2.26;84.25
85936;BME280;76481;54.346;10.210;2024-03-17T03:14:05;102062.75;;;2.22;84.66
85936;BME280;76481;54.346;10.210;2024-03-17T03:16:30;102065.13;;;2.21;85.33
85936;BME280;76481;54.346;10.210;2024-03-17T03:18:56;102060.19;;;2.14;84.63
85936;BME280;76481;54.346;10.210;2024-03-17T03:21:21;102070.50;;;2.13;85.27
85936;BME280;76481;54.346;10.210;2024-03-17T03:23:47;102068.19;;;2.15;85.19
85936;BME280;76481;54.346;10.210;2024-03-17T03:26:13;102064.16;;;2.13;84.80
85936;BME280;76481;54.346;10.210;2024-03-17T03:28:38;102064.34;;;2.04;85.37
85936;BME280;76481;54.346;10.210;2024-03-17T03:31:04;102073.13;;;2.06;85.68
85936;BME280;76481;54.346;10.210;2024-03-17T03:33:30;102069.19;;;2.07;84.76
85936;BME280;76481;54.346;10.210;2024-03-17T03:35:56;102078.34;;;2.08;84.81
85936;BME280;76481;54.346;10.210;2024-03-17T03:38:22;102073.13;;;2.06;85.26
85936;BME280;76481;54.346;10.210;2024-03-17T03:40:48;102080.13;;;2.16;85.46
85936;BME280;76481;54.346;10.210;2024-03-17T03:43:14;102076.78;;;2.10;84.19
85936;BME280;76481;54.346;10.210;2024-03-17T03:45:40;102080.75;;;2.09;85.10
85936;BME280;76481;54.346;10.210;2024-03-17T03:48:06;102088.28;;;2.09;84.83
85936;BME280;76481;54.346;10.210;2024-03-17T03:50:32;102082.06;;;1.96;85.93
85936;BME280;76481;54.346;10.210;2024-03-17T03:52:58;102088.25;;;1.90;85.80
85936;BME280;76481;54.346;10.210;2024-03-17T03:55:24;102080.19;;;1.85;86.55
85936;BME280;76481;54.346;10.210;2024-03-17T03:57:49;102084.94;;;1.84;86.32
85936;BME280;76481;54.346;10.210;2024-03-17T04:00:18;102089.63;;;1.80;87.03
85936;BME280;76481;54.346;10.210;2024-03-17T04:02:48;102088.91;;;1.83;86.10
85936;BME280;76481;54.346;10.210;2024-03-17T04:05:14;102084.06;;;1.80;86.00
85936;BME280;76481;54.346;10.210;2024-03-17T04:07:40;102094.28;;;1.76;86.17
85936;BME280;76481;54.346;10.210;2024-03-17T04:10:06;102094.66;;;1.75;86.54
85936;BME280;76481;54.346;10.210;2024-03-17T04:12:31;102086.22;;;1.71;86.85
85936;BME280;76481;54.346;10.210;2024-03-17T04:14:58;102087.03;;;1.72;86.99
85936;BME280;76481;54.346;10.210;2024-03-17T04:17:25;102091.78;;;1.71;85.75
85936;BME280;76481;54.346;10.210;2024-03-17T04:19:51;102094.72;;;1.78;86.23
85936;BME280;76481;54.346;10.210;2024-03-17T04:22:18;102086.84;;;1.80;86.20
85936;BME280;76481;54.346;10.210;2024-03-17T04:24:47;102091.94;;;1.78;86.44
85936;BME280;76481;54.346;10.210;2024-03-17T04:27:13;102092.03;;;1.82;86.28
85936;BME280;76481;54.346;10.210;2024-03-17T04:29:39;102099.50;;;1.78;86.26
85936;BME280;76481;54.346;10.210;2024-03-17T04:32:06;102095.38;;;1.56;87.34
85936;BME280;76481;54.346;10.210;2024-03-17T04:34:32;102100.59;;;1.42;87.52
85936;BME280;76481;54.346;10.210;2024-03-17T04:36:58;102104.31;;;1.34;87.64
85936;BME280;76481;54.346;10.210;2024-03-17T04:39:24;102093.41;;;1.26;88.90
85936;BME280;76481;54.346;10.210;2024-03-17T04:41:50;102091.50;;;1.14;88.11
85936;BME280;76481;54.346;10.210;2024-03-17T04:44:16;102095.16;;;1.03;88.92
85936;BME280;76481;54.346;10.210;2024-03-17T04:46:42;102099.91;;;1.02;88.95
85936;BME280;76481;54.346;10.210;2024-03-17T04:49:07;102105.47;;;1.02;89.66
85936;BME280;76481;54.346;10.210;2024-03-17T04:51:34;102108.22;;;1.02;89.54
85936;BME280;76481;54.346;10.210;2024-03-17T04:54:00;102101.69;;;0.95;89.79
85936;BME280;76481;54.346;10.210;2024-03-17T04:56:25;102119.41;;;0.90;90.30
85936;BME280;76481;54.346;10.210;2024-03-17T04:58:51;102114.31;;;0.92;89.71
85936;BME280;76481;54.346;10.210;2024-03-17T05:01:16;102121.16;;;0.83;90.68
85936;BME280;76481;54.346;10.210;2024-03-17T05:03:44;102118.31;;;0.79;90.13
85936;BME280;76481;54.346;10.210;2024-03-17T05:06:10;102127.00;;;0.93;90.01
85936;BME280;76481;54.346;10.210;2024-03-17T05:08:35;102120.16;;;1.03;91.33
85936;BME280;76481;54.346;10.210;2024-03-17T05:11:03;102115.56;;;0.95;89.35
85936;BME280;76481;54.346;10.210;2024-03-17T05:13:33;102120.25;;;0.79;89.58
85936;BME280;76481;54.346;10.210;2024-03-17T05:16:00;102123.78;;;0.91;91.02
85936;BME280;76481;54.346;10.210;2024-03-17T05:18:25;102132.06;;;1.03;90.77
85936;BME280;76481;54.346;10.210;2024-03-17T05:23:27;102154.81;;;0.81;90.27
85936;BME280;76481;54.346;10.210;2024-03-17T05:25:54;102169.91;;;0.68;89.25
85936;BME280;76481;54.346;10.210;2024-03-17T05:28:20;102174.19;;;0.66;91.07
85936;BME280;76481;54.346;10.210;2024-03-17T05:30:46;102173.72;;;0.64;91.05
85936;BME280;76481;54.346;10.210;2024-03-17T05:33:11;102180.81;;;0.61;90.71
85936;BME280;76481;54.346;10.210;2024-03-17T05:35:37;102173.38;;;0.65;90.89
85936;BME280;76481;54.346;10.210;2024-03-17T05:38:03;102169.09;;;0.68;91.99
85936;BME280;76481;54.346;10.210;2024-03-17T05:40:28;102168.47;;;0.86;92.46
85936;BME280;76481;54.346;10.210;2024-03-17T05:42:56;102160.09;;;0.98;91.56
85936;BME280;76481;54.346;10.210;2024-03-17T05:45:21;102166.09;;;1.00;91.79
85936;BME280;76481;54.346;10.210;2024-03-17T05:47:49;102164.13;;;1.01;90.38
85936;BME280;76481;54.346;10.210;2024-03-17T05:50:15;102169.63;;;1.13;90.55
85936;BME280;76481;54.346;10.210;2024-03-17T05:52:41;102174.66;;;1.23;90.93
85936;BME280;76481;54.346;10.210;2024-03-17T05:55:06;102177.91;;;1.25;91.56
85936;BME280;76481;54.346;10.210;2024-03-17T05:57:32;102178.16;;;1.20;91.38
85936;BME280;76481;54.346;10.210;2024-03-17T05:59:57;102192.75;;;1.17;90.93
85936;BME280;76481;54.346;10.210;2024-03-17T06:02:23;102184.06;;;1.18;90.55
85936;BME280;76481;54.346;10.210;2024-03-17T06:04:48;102183.47;;;1.25;90.97
85936;BME280;76481;54.346;10.210;2024-03-17T06:07:14;102194.41;;;1.33;89.81
85936;BME280;76481;54.346;10.210;2024-03-17T06:09:39;102194.13;;;1.38;90.86
85936;BME280;76481;54.346;10.210;2024-03-17T06:12:05;102201.03;;;1.44;90.30
85936;BME280;76481;54.346;10.210;2024-03-17T06:14:31;102214.94;;;1.44;90.06
85936;BME280;76481;54.346;10.210;2024-03-17T06:16:59;102205.91;;;1.47;89.83
85936;BME280;76481;54.346;10.210;2024-03-17T06:19:25;102212.47;;;1.55;90.80
85936;BME280;76481;54.346;10.210;2024-03-17T06:21:50;102208.53;;;1.56;89.59
85936;BME280;76481;54.346;10.210;2024-03-17T06:24:16;102217.84;;;1.63;89.16
85936;BME280;76481;54.346;10.210;2024-03-17T06:26:42;102211.84;;;1.77;89.18
85936;BME280;76481;54.346;10.210;2024-03-17T06:29:07;102220.56;;;1.91;89.07
85936;BME280;76481;54.346;10.210;2024-03-17T06:31:33;102211.97;;;2.11;87.71
85936;BME280;76481;54.346;10.210;2024-03-17T06:33:58;102222.06;;;2.35;86.33
85936;BME280;76481;54.346;10.210;2024-03-17T06:36:23;102217.34;;;2.55;85.90
85936;BME280;76481;54.346;10.210;2024-03-17T06:38:49;102216.38;;;2.82;84.53
85936;BME280;76481;54.346;10.210;2024-03-17T06:41:14;102224.38;;;3.02;82.45
85936;BME280;76481;54.346;10.210;2024-03-17T06:43:40;102227.09;;;3.18;80.99
85936;BME280;76481;54.346;10.210;2024-03-17T06:46:11;102234.81;;;3.24;80.24
85936;BME280;76481;54.346;10.210;2024-03-17T06:48:37;102227.41;;;3.32;80.58
85936;BME280;76481;54.346;10.210;2024-03-17T06:51:02;102231.38;;;3.31;80.08
85936;BME280;76481;54.346;10.210;2024-03-17T06:53:27;102242.28;;;3.39;79.11
85936;BME280;76481;54.346;10.210;2024-03-17T06:58:21;102232.50;;;3.49;78.02
85936;BME280;76481;54.346;10.210;2024-03-17T07:03:20;102244.38;;;3.65;76.61
85936;BME280;76481;54.346;10.210;2024-03-17T07:05:55;102247.13;;;3.84;76.65
85936;BME280;76481;54.346;10.210;2024-03-17T07:08:21;102246.16;;;3.95;75.54
85936;BME280;76481;54.346;10.210;2024-03-17T07:11:06;102242.03;;;4.12;74.28
85936;BME280;76481;54.346;10.210;2024-03-17T07:13:34;102248.06;;;4.14;72.32
85936;BME280;76481;54.346;10.210;2024-03-17T07:16:00;102250.22;;;4.24;72.28
85936;BME280;76481;54.346;10.210;2024-03-17T07:18:27;102253.75;;;4.21;71.95
85936;BME280;76481;54.346;10.210;2024-03-17T07:20:56;102253.00;;;4.24;71.83
85936;BME280;76481;54.346;10.210;2024-03-17T07:23:22;102248.00;;;4.59;72.86
85936;BME280;76481;54.346;10.210;2024-03-17T07:25:55;102253.38;;;4.71;70.94
85936;BME280;76481;54.346;10.210;2024-03-17T07:28:21;102263.69;;;4.93;69.80
85936;BME280;76481;54.346;10.210;2024-03-17T07:30:54;102260.56;;;4.98;70.21
85936;BME280;76481;54.346;10.210;2024-03-17T07:33:21;102260.84;;;5.19;68.70
85936;BME280;76481;54.346;10.210;2024-03-17T07:35:54;102255.44;;;5.33;67.40
85936;BME280;76481;54.346;10.210;2024-03-17T07:38:22;102261.72;;;5.23;67.72
85936;BME280;76481;54.346;10.210;2024-03-17T07:41:05;102256.63;;;5.32;66.21
85936;BME280;76481;54.346;10.210;2024-03-17T07:43:32;102262.59;;;5.31;65.98
85936;BME280;76481;54.346;10.210;2024-03-17T07:46:02;102255.72;;;5.54;65.67
85936;BME280;76481;54.346;10.210;2024-03-17T07:48:31;102258.16;;;5.92;64.51
85936;BME280;76481;54.346;10.210;2024-03-17T07:51:02;102259.03;;;6.03;64.08
85936;BME280;76481;54.346;10.210;2024-03-17T07:53:32;102257.38;;;5.62;62.89
85936;BME280;76481;54.346;10.210;2024-03-17T07:58:30;102267.09;;;6.08;62.41
85936;BME280;76481;54.346;10.210;2024-03-17T08:01:15;102252.34;;;6.11;61.25
85936;BME280;76481;54.346;10.210;2024-03-17T08:03:44;102254.97;;;5.97;62.42
85936;BME280;76481;54.346;10.210;2024-03-17T08:06:10;102257.06;;;5.67;63.68
85936;BME280;76481;54.346;10.210;2024-03-17T08:08:38;102261.94;;;6.14;64.39
85936;BME280;76481;54.346;10.210;2024-03-17T08:11:03;102258.41;;;6.68;60.74
85936;BME280;76481;54.346;10.210;2024-03-17T08:13:30;102268.97;;;6.37;59.37
85936;BME280;76481;54.346;10.210;2024-03-17T08:16:03;102271.09;;;6.51;62.00
85936;BME280;76481;54.346;10.210;2024-03-17T08:18:31;102259.00;;;6.43;60.55
85936;BME280;76481;54.346;10.210;2024-03-17T08:20:57;102272.13;;;5.26;64.29
85936;BME280;76481;54.346;10.210;2024-03-17T08:23:23;102271.47;;;6.06;62.72
85936;BME280;76481;54.346;10.210;2024-03-17T08:26:07;102267.25;;;6.73;60.62
85936;BME280;76481;54.346;10.210;2024-03-17T08:28:34;102267.63;;;7.43;59.68
85936;BME280;76481;54.346;10.210;2024-03-17T08:31:01;102271.47;;;7.11;59.11
85936;BME280;76481;54.346;10.210;2024-03-17T08:33:27;102264.38;;;7.34;57.27
85936;BME280;76481;54.346;10.210;2024-03-17T08:38:27;102273.88;;;8.29;55.81
85936;BME280;76481;54.346;10.210;2024-03-17T08:40:56;102273.88;;;8.82;53.49
85936;BME280;76481;54.346;10.210;2024-03-17T08:43:23;102271.06;;;8.22;56.59
85936;BME280;76481;54.346;10.210;2024-03-17T08:48:29;102269.97;;;7.27;57.96
85936;BME280;76481;54.346;10.210;2024-03-17T08:50:56;102268.66;;;8.84;55.30
85936;BME280;76481;54.346;10.210;2024-03-17T08:53:23;102261.03;;;8.74;53.75
85936;BME280;76481;54.346;10.210;2024-03-17T08:55:49;102253.78;;;8.17;54.42
85936;BME280;76481;54.346;10.210;2024-03-17T08:58:14;102263.38;;;7.88;55.92
85936;BME280;76481;54.346;10.210;2024-03-17T09:00:40;102251.53;;;9.58;51.91
85936;BME280;76481;54.346;10.210;2024-03-17T09:03:09;102262.34;;;9.66;50.96
85936;BME280;76481;54.346;10.210;2024-03-17T09:05:39;102259.34;;;10.01;50.26
85936;BME280;76481;54.346;10.210;2024-03-17T09:08:05;102264.69;;;9.82;51.83
85936;BME280;76481;54.346;10.210;2024-03-17T09:10:39;102261.06;;;9.81;49.75
85936;BME280;76481;54.346;10.210;2024-03-17T09:13:05;102264.16;;;7.85;54.25
85936;BME280;76481;54.346;10.210;2024-03-17T09:15:30;102273.97;;;6.62;58.37
85936;BME280;76481;54.346;10.210;2024-03-17T09:17:56;102258.22;;;8.21;55.14
85936;BME280;76481;54.346;10.210;2024-03-17T09:20:21;102259.75;;;9.14;51.89
85936;BME280;76481;54.346;10.210;2024-03-17T09:22:47;102260.03;;;10.19;48.43
85936;BME280;76481;54.346;10.210;2024-03-17T09:25:12;102264.91;;;10.15;47.96
85936;BME280;76481;54.346;10.210;2024-03-17T09:27:40;102254.25;;;10.81;46.49
85936;BME280;76481;54.346;10.210;2024-03-17T09:30:06;102232.66;;;10.68;47.44
85936;BME280;76481;54.346;10.210;2024-03-17T09:32:37;102257.06;;;9.79;48.67
85936;BME280;76481;54.346;10.210;2024-03-17T09:35:06;102254.00;;;9.38;48.97
85936;BME280;76481;54.346;10.210;2024-03-17T09:37:32;102258.66;;;8.59;52.55
85936;BME280;76481;54.346;10.210;2024-03-17T09:39:58;102267.38;;;10.03;50.33
85936;BME280;76481;54.346;10.210;2024-03-17T09:42:26;102250.41;;;11.02;47.95
85936;BME280;76481;54.346;10.210;2024-03-17T09:44:53;102263.31;;;10.14;47.54
85936;BME280;76481;54.346;10.210;2024-03-17T09:47:20;102256.00;;;11.09;47.02
85936;BME280;76481;54.346;10.210;2024-03-17T09:49:47;102253.72;;;11.67;45.35
85936;BME280;76481;54.346;10.210;2024-03-17T09:52:25;102253.19;;;11.42;45.34
85936;BME280;76481;54.346;10.210;2024-03-17T09:57:22;102269.03;;;8.97;47.29
85936;BME280;76481;54.346;10.210;2024-03-17T09:59:55;102264.75;;;10.36;46.82
85936;BME280;76481;54.346;10.210;2024-03-17T10:02:21;102274.16;;;10.16;48.01
85936;BME280;76481;54.346;10.210;2024-03-17T10:04:47;102269.13;;;11.26;45.43
85936;BME280;76481;54.346;10.210;2024-03-17T10:07:13;102265.50;;;11.89;43.84
85936;BME280;76481;54.346;10.210;2024-03-17T10:09:40;102263.03;;;12.90;41.48
85936;BME280;76481;54.346;10.210;2024-03-17T10:12:25;102263.59;;;13.05;40.51
85936;BME280;76481;54.346;10.210;2024-03-17T10:14:58;102273.19;;;13.11;40.39
85936;BME280;76481;54.346;10.210;2024-03-17T10:17:33;102278.53;;;12.36;43.50
85936;BME280;76481;54.346;10.210;2024-03-17T10:20:17;102271.84;;;12.73;41.91
85936;BME280;76481;54.346;10.210;2024-03-17T10:23:06;102266.84;;;13.26;40.57
85936;BME280;76481;54.346;10.210;2024-03-17T10:25:34;102274.59;;;13.22;40.35
85936;BME280;76481;54.346;10.210;2024-03-17T10:28:15;102272.16;;;12.78;39.04
85936;BME280;76481;54.346;10.210;2024-03-17T10:30:42;102271.66;;;13.06;40.31
85936;BME280;76481;54.346;10.210;2024-03-17T10:33:21;102285.09;;;12.79;41.27
85936;BME280;76481;54.346;10.210;2024-03-17T10:35:48;102281.19;;;12.69;39.64
85936;BME280;76481;54.346;10.210;2024-03-17T10:38:14;102275.84;;;12.98;39.31
85936;BME280;76481;54.346;10.210;2024-03-17T10:40:41;102287.06;;;13.05;39.10
85936;BME280;76481;54.346;10.210;2024-03-17T10:43:06;102287.88;;;13.06;39.93
85936;BME280;76481;54.346;10.210;2024-03-17T10:45:33;102288.41;;;13.20;38.36
85936;BME280;76481;54.346;10.210;2024-03-17T10:48:02;102286.13;;;12.89;39.58
85936;BME280;76481;54.346;10.210;2024-03-17T10:50:35;102283.84;;;13.46;38.56
85936;BME280;76481;54.346;10.210;2024-03-17T10:53:03;102292.34;;;13.65;38.78
85936;BME280;76481;54.346;10.210;2024-03-17T10:55:32;102292.47;;;13.39;39.76
85936;BME280;76481;54.346;10.210;2024-03-17T10:58:33;102302.50;;;13.43;38.41
85936;BME280;76481;54.346;10.210;2024-03-17T11:00:57;102293.59;;;13.64;38.96
85936;BME280;76481;54.346;10.210;2024-03-17T11:03:24;102290.00;;;13.21;38.05
85936;BME280;76481;54.346;10.210;2024-03-17T11:05:51;102301.88;;;11.16;44.54
85936;BME280;76481;54.346;10.210;2024-03-17T11:08:18;102298.13;;;11.97;42.00
85936;BME280;76481;54.346;10.210;2024-03-17T11:10:51;102293.22;;;13.23;39.82
85936;BME280;76481;54.346;10.210;2024-03-17T11:13:25;102293.66;;;13.80;37.89
85936;BME280;76481;54.346;10.210;2024-03-17T11:15:52;102273.91;;;13.57;39.61
85936;BME280;76481;54.346;10.210;2024-03-17T11:21:03;102283.97;;;13.39;39.27
85936;BME280;76481;54.346;10.210;2024-03-17T11:23:42;102285.00;;;13.68;38.35
85936;BME280;76481;54.346;10.210;2024-03-17T11:26:07;102287.38;;;13.89;36.70
85936;BME280;76481;54.346;10.210;2024-03-17T11:34:01;102266.06;;;12.80;39.34
85936;BME280;76481;54.346;10.210;2024-03-17T11:41:39;102274.16;;;13.04;38.83
85936;BME280;76481;54.346;10.210;2024-03-17T11:46:40;102282.50;;;12.15;40.57
85936;BME280;76481;54.346;10.210;2024-03-17T11:49:05;102290.44;;;12.24;42.52
85936;BME280;76481;54.346;10.210;2024-03-17T11:51:34;102285.63;;;12.47;41.87
85936;BME280;76481;54.346;10.210;2024-03-17T11:54:00;102284.88;;;12.17;41.61
85936;BME280;76481;54.346;10.210;2024-03-17T11:56:26;102279.38;;;12.33;41.58
85936;BME280;76481;54.346;10.210;2024-03-17T11:59:05;102282.69;;;12.28;42.01
85936;BME280;76481;54.346;10.210;2024-03-17T12:01:34;102292.53;;;12.20;41.25
85936;BME280;76481;54.346;10.210;2024-03-17T12:04:00;102291.78;;;12.65;41.54
85936;BME280;76481;54.346;10.210;2024-03-17T12:06:33;102285.25;;;12.92;40.57
85936;BME280;76481;54.346;10.210;2024-03-17T12:11:43;102293.31;;;12.47;40.54
85936;BME280;76481;54.346;10.210;2024-03-17T12:14:19;102285.28;;;12.68;41.35
85936;BME280;76481;54.346;10.210;2024-03-17T12:16:52;102281.69;;;12.88;40.90
85936;BME280;76481;54.346;10.210;2024-03-17T12:19:19;102284.94;;;12.40;41.27
85936;BME280;76481;54.346;10.210;2024-03-17T12:21:46;102289.19;;;10.98;45.65
85936;BME280;76481;54.346;10.210;2024-03-17T12:24:20;102280.56;;;11.82;43.64
85936;BME280;76481;54.346;10.210;2024-03-17T12:26:47;102271.22;;;12.12;42.62
85936;BME280;76481;54.346;10.210;2024-03-17T12:31:51;102271.66;;;12.10;42.40
85936;BME280;76481;54.346;10.210;2024-03-17T12:34:18;102264.69;;;11.88;42.98
85936;BME280;76481;54.346;10.210;2024-03-17T12:36:44;102258.75;;;12.09;42.96
85936;BME280;76481;54.346;10.210;2024-03-17T12:39:21;102254.63;;;12.14;43.32
85936;BME280;76481;54.346;10.210;2024-03-17T12:42:03;102259.72;;;11.99;41.95
85936;BME280;76481;54.346;10.210;2024-03-17T12:44:30;102246.00;;;11.98;43.84
85936;BME280;76481;54.346;10.210;2024-03-17T12:46:59;102249.84;;;12.11;42.39
85936;BME280;76481;54.346;10.210;2024-03-17T12:49:29;102247.81;;;11.85;42.58
85936;BME280;76481;54.346;10.210;2024-03-17T12:51:55;102245.56;;;11.73;42.00
85936;BME280;76481;54.346;10.210;2024-03-17T12:54:24;102246.47;;;11.93;42.16
85936;BME280;76481;54.346;10.210;2024-03-17T12:56:51;102261.28;;;12.00;43.51
85936;BME280;76481;54.346;10.210;2024-03-17T12:59:42;102250.41;;;12.25;42.96
85936;BME280;76481;54.346;10.210;2024-03-17T13:02:26;102229.50;;;12.19;41.96
85936;BME280;76481;54.346;10.210;2024-03-17T13:05:07;102233.88;;;11.97;41.20
85936;BME280;76481;54.346;10.210;2024-03-17T13:07:33;102240.03;;;12.19;41.52
85936;BME280;76481;54.346;10.210;2024-03-17T13:09:58;102242.13;;;12.38;41.50
85936;BME280;76481;54.346;10.210;2024-03-17T13:12:23;102236.44;;;12.15;41.26
85936;BME280;76481;54.346;10.210;2024-03-17T13:14:49;102228.50;;;11.80;43.04
85936;BME280;76481;54.346;10.210;2024-03-17T13:17:15;102231.13;;;11.64;42.68
85936;BME280;76481;54.346;10.210;2024-03-17T13:19:46;102210.69;;;11.53;42.95
85936;BME280;76481;54.346;10.210;2024-03-17T13:22:12;102222.06;;;11.16;44.25
85936;BME280;76481;54.346;10.210;2024-03-17T13:24:38;102226.47;;;11.17;44.24
85936;BME280;76481;54.346;10.210;2024-03-17T13:27:05;102222.06;;;11.16;43.64
85936;BME280;76481;54.346;10.210;2024-03-17T13:29:32;102216.63;;;10.95;44.13